Time;durP1;ratioP1;P1;durP2;ratioP2;P2;SDS_P1;SDS_P2;PMS_P1;PMS_P2;Temp;Humidity;BMP_temperature;BMP_pressure;BME280_temperature;BME280_humidity;BME280_pressure;Samples;Min_cycle;Max_cycle;Signal;HPM_P1;HPM_P2
2023/01/29 00:02:07;;;;;;;52.60;24.02;;;1.90;99.90;;;;;;5105021;28;20181;-78
2023/01/29 00:04:34;;;;;;;48.85;22.58;;;1.80;99.90;;;;;;5104880;28;20216;-82
2023/01/29 00:07:00;;;;;;;47.28;23.17;;;1.80;99.90;;;;;;5096176;28;20170;-80
2023/01/29 00:09:27;;;;;;;45.63;23.23;;;1.70;99.90;;;;;;5096167;28;20239;-80
2023/01/29 00:11:53;;;;;;;59.45;25.02;;;1.40;99.90;;;;;;5095734;28;20174;-82
2023/01/29 00:14:19;;;;;;;43.80;23.15;;;1.60;99.90;;;;;;5095835;28;20176;-81
2023/01/29 00:16:44;;;;;;;53.22;22.67;;;1.60;99.90;;;;;;5095910;28;20170;-78
2023/01/29 00:19:10;;;;;;;46.15;23.35;;;1.60;99.90;;;;;;5095659;28;20207;-83
2023/01/29 00:21:36;;;;;;;48.25;24.83;;;1.60;99.90;;;;;;5095711;28;20182;-77
2023/01/29 00:24:03;;;;;;;47.92;23.65;;;1.70;99.90;;;;;;5096111;28;20255;-78
2023/01/29 00:26:28;;;;;;;42.88;22.77;;;1.40;99.90;;;;;;5096532;28;20207;-78
2023/01/29 00:28:56;;;;;;;42.97;22.65;;;1.40;99.90;;;;;;5096482;28;20174;-78
2023/01/29 00:31:23;;;;;;;44.65;23.80;;;1.30;99.90;;;;;;5094748;28;20253;-84
2023/01/29 00:33:49;;;;;;;45.05;23.67;;;1.30;99.90;;;;;;5095993;28;20170;-84
2023/01/29 00:36:17;;;;;;;45.65;22.25;;;1.30;99.90;;;;;;5095947;28;20253;-77
2023/01/29 00:38:43;;;;;;;49.53;22.27;;;1.20;99.90;;;;;;5096101;28;20231;-80
2023/01/29 00:46:38;;;;;;;44.15;22.23;;;1.50;99.90;;;;;;5095884;28;20180;-77
2023/01/29 00:49:04;;;;;;;43.28;23.02;;;1.50;99.90;;;;;;5095787;28;20261;-82
2023/01/29 00:51:30;;;;;;;44.65;22.63;;;1.60;99.90;;;;;;5096002;28;20573;-85
2023/01/29 00:53:57;;;;;;;46.15;23.48;;;1.70;99.90;;;;;;5096090;28;20172;-83
2023/01/29 00:56:26;;;;;;;49.45;24.40;;;1.70;99.90;;;;;;5095996;28;20253;-81
2023/01/29 00:58:52;;;;;;;47.55;24.50;;;1.60;99.90;;;;;;5094397;28;20170;-81
2023/01/29 01:03:04;;;;;;;47.05;23.48;;;1.60;99.90;;;;;;5095926;28;20181;-81
2023/01/29 01:04:04;;;;;;;43.67;22.25;;;1.50;99.90;;;;;;5095489;28;20224;-80
2023/01/29 01:06:30;;;;;;;41.35;22.55;;;1.60;99.90;;;;;;5095872;28;20170;-83
2023/01/29 01:11:40;;;;;;;41.67;22.77;;;1.50;99.90;;;;;;5096035;28;20549;-82
2023/01/29 01:14:06;;;;;;;48.63;23.02;;;1.30;99.90;;;;;;5095824;28;20166;-78
2023/01/29 01:16:31;;;;;;;53.63;24.90;;;1.20;99.90;;;;;;5095709;28;20166;-84
2023/01/29 01:18:57;;;;;;;41.55;22.65;;;1.30;99.90;;;;;;5095671;28;20215;-83
2023/01/29 01:21:22;;;;;;;50.60;23.25;;;1.70;99.90;;;;;;5095543;28;20182;-78
2023/01/29 01:23:50;;;;;;;46.35;23.00;;;1.70;99.90;;;;;;5093853;28;20201;-85
2023/01/29 01:26:17;;;;;;;42.50;23.75;;;1.60;99.90;;;;;;5093853;28;20178;-83
2023/01/29 01:28:42;;;;;;;45.70;23.23;;;1.80;99.90;;;;;;5094893;28;20186;-80
2023/01/29 01:31:13;;;;;;;46.55;23.23;;;1.50;99.90;;;;;;5095023;28;20295;-79
2023/01/29 01:33:39;;;;;;;47.90;23.08;;;1.30;99.90;;;;;;5094628;28;20170;-85
2023/01/29 01:36:08;;;;;;;52.05;23.83;;;1.40;99.90;;;;;;5094573;28;20162;-83
2023/01/29 01:38:43;;;;;;;46.47;22.38;;;1.40;99.90;;;;;;5093214;28;20273;-81
2023/01/29 01:41:10;;;;;;;45.78;21.92;;;1.50;99.90;;;;;;5094816;28;20185;-82
2023/01/29 01:44:27;;;;;;;46.28;24.05;;;1.50;99.90;;;;;;5094437;28;20211;-81
2023/01/29 01:46:53;;;;;;;41.67;22.15;;;1.30;99.90;;;;;;5084827;28;20220;-77
2023/01/29 01:49:20;;;;;;;46.03;23.20;;;1.20;99.90;;;;;;5094514;28;20190;-84
2023/01/29 01:51:50;;;;;;;46.95;23.17;;;1.30;99.90;;;;;;5094358;28;20194;-78
2023/01/29 01:54:25;;;;;;;38.25;22.23;;;1.40;99.90;;;;;;5094444;28;20221;-80
2023/01/29 01:57:03;;;;;;;55.83;24.02;;;1.20;99.90;;;;;;5094741;28;20201;-84
2023/01/29 01:59:32;;;;;;;49.08;23.75;;;1.20;99.90;;;;;;5093192;28;20170;-83
2023/01/29 02:01:58;;;;;;;54.17;24.23;;;1.40;99.90;;;;;;5094568;28;20239;-83
2023/01/29 02:10:10;;;;;;;49.73;22.53;;;1.60;99.90;;;;;;5094102;28;20259;-83
2023/01/29 02:12:36;;;;;;;47.08;21.73;;;1.40;99.90;;;;;;5094396;28;20165;-83
2023/01/29 02:15:03;;;;;;;52.60;23.23;;;1.10;99.90;;;;;;5094284;28;20166;-83
2023/01/29 02:17:28;;;;;;;41.97;22.10;;;0.90;99.90;;;;;;5094256;28;20586;-85
2023/01/29 02:20:19;;;;;;;48.67;22.30;;;0.70;99.90;;;;;;5094301;28;20190;-84
2023/01/29 02:22:54;;;;;;;48.35;22.70;;;0.70;99.90;;;;;;5094457;28;20169;-80
2023/01/29 02:25:35;;;;;;;47.03;24.20;;;0.80;99.90;;;;;;5094263;28;20265;-84
2023/01/29 02:28:06;;;;;;;51.30;23.65;;;0.90;99.90;;;;;;5094134;28;20170;-83
2023/01/29 02:30:55;;;;;;;46.80;23.42;;;1.20;99.90;;;;;;5094041;28;20186;-85
2023/01/29 02:33:44;;;;;;;46.28;23.90;;;1.30;99.90;;;;;;5092897;28;20242;-78
2023/01/29 02:36:32;;;;;;;52.28;23.83;;;1.20;99.90;;;;;;5093681;28;20634;-86
2023/01/29 02:39:14;;;;;;;48.25;23.38;;;0.90;99.90;;;;;;5093368;28;20250;-82
2023/01/29 02:42:01;;;;;;;53.58;24.30;;;0.90;99.90;;;;;;5092872;28;20182;-80
2023/01/29 02:44:47;;;;;;;52.65;24.30;;;1.00;99.90;;;;;;5093740;28;20261;-81
2023/01/29 02:47:28;;;;;;;44.97;22.90;;;1.20;99.90;;;;;;5093911;28;20256;-83
2023/01/29 02:50:15;;;;;;;49.58;23.42;;;1.30;99.90;;;;;;5093739;28;20249;-80
2023/01/29 02:53:12;;;;;;;48.50;24.70;;;1.20;99.90;;;;;;5093825;28;20287;-78
2023/01/29 02:55:47;;;;;;;51.67;23.15;;;1.30;99.90;;;;;;5094046;28;20534;-79
2023/01/29 02:58:25;;;;;;;45.88;22.77;;;1.40;99.90;;;;;;5095413;28;20162;-76
2023/01/29 03:00:54;;;;;;;46.37;23.13;;;1.50;99.90;;;;;;5109593;28;20177;-77
2023/01/29 03:03:38;;;;;;;45.58;22.63;;;1.40;99.90;;;;;;5109813;28;20162;-77
2023/01/29 03:06:32;;;;;;;48.67;24.27;;;1.10;99.90;;;;;;5102893;28;20261;-78
2023/01/29 03:09:15;;;;;;;44.03;22.52;;;1.00;99.90;;;;;;5096951;28;20182;-82
2023/01/29 03:11:44;;;;;;;48.70;22.20;;;0.60;99.90;;;;;;5093347;28;20190;-78
2023/01/29 03:14:25;;;;;;;52.50;23.27;;;0.60;99.90;;;;;;5093403;28;20207;-83
2023/01/29 03:16:52;;;;;;;49.15;23.83;;;0.50;99.90;;;;;;5093418;28;20172;-77
2023/01/29 03:19:40;;;;;;;47.83;23.20;;;0.60;99.90;;;;;;5093042;28;20629;-78
2023/01/29 03:22:09;;;;;;;47.85;23.10;;;0.30;99.90;;;;;;5093051;28;20656;-85
2023/01/29 03:33:25;;;;;;;39.78;19.77;;;0.40;99.90;;;;;;5093038;28;20190;-84
2023/01/29 03:36:01;;;;;;;47.10;23.55;;;0.40;99.90;;;;;;5092786;28;20257;-78
2023/01/29 03:38:28;;;;;;;53.63;24.15;;;0.40;99.90;;;;;;5092878;28;20165;-81
2023/01/29 03:41:18;;;;;;;55.90;23.33;;;0.20;99.90;;;;;;5092910;28;20185;-77
2023/01/29 03:44:00;;;;;;;53.93;24.00;;;0.10;99.90;;;;;;5091477;28;20185;-84
2023/01/29 03:46:28;;;;;;;45.30;23.45;;;0.20;99.90;;;;;;5091584;28;20630;-79
2023/01/29 03:49:01;;;;;;;48.63;23.43;;;0.50;99.90;;;;;;5096726;28;20531;-79
2023/01/29 03:51:32;;;;;;;43.38;22.40;;;0.50;99.90;;;;;;5096381;28;20182;-79
2023/01/29 03:54:19;;;;;;;49.38;23.80;;;0.60;99.90;;;;;;5096409;28;20197;-80
2023/01/29 03:56:56;;;;;;;41.42;22.45;;;0.50;99.90;;;;;;5096641;28;20173;-80
2023/01/29 03:59:22;;;;;;;43.63;21.50;;;0.40;99.90;;;;;;5096111;28;20515;-80
2023/01/29 04:01:54;;;;;;;43.40;21.65;;;0.40;99.90;;;;;;5096408;28;20189;-77
2023/01/29 04:04:27;;;;;;;56.42;24.02;;;0.40;99.90;;;;;;5096422;28;20202;-78
2023/01/29 04:06:59;;;;;;;42.58;22.00;;;0.40;99.90;;;;;;5096295;28;20194;-85
2023/01/29 04:09:31;;;;;;;47.28;21.83;;;0.40;99.90;;;;;;5096374;28;20166;-84
2023/01/29 04:12:08;;;;;;;42.08;21.83;;;0.50;99.90;;;;;;5095967;28;20172;-78
2023/01/29 04:14:34;;;;;;;46.85;22.77;;;0.70;99.90;;;;;;5096509;28;20248;-84
2023/01/29 04:17:22;;;;;;;48.25;22.52;;;1.00;99.90;;;;;;5096354;28;20258;-79
2023/01/29 04:19:48;;;;;;;49.40;23.33;;;1.30;99.90;;;;;;5095637;28;20669;-84
2023/01/29 04:22:22;;;;;;;44.78;21.85;;;1.30;99.90;;;;;;5096507;28;20246;-80
2023/01/29 04:24:48;;;;;;;46.65;22.73;;;1.30;99.90;;;;;;5096273;28;20209;-78
2023/01/29 04:27:39;;;;;;;47.33;21.75;;;1.50;99.90;;;;;;5096195;28;20236;-80
2023/01/29 04:30:38;;;;;;;51.30;23.48;;;1.80;99.90;;;;;;5096065;28;20190;-77
2023/01/29 04:33:30;;;;;;;49.72;22.48;;;2.10;99.90;;;;;;5096016;28;20218;-84
2023/01/29 04:36:10;;;;;;;46.47;23.05;;;1.90;99.90;;;;;;5096141;28;20257;-85
2023/01/29 04:38:53;;;;;;;44.22;20.95;;;1.50;99.90;;;;;;5095633;28;20192;-80
2023/01/29 04:41:36;;;;;;;50.55;22.58;;;1.50;99.90;;;;;;5095654;28;20221;-77
2023/01/29 04:44:38;;;;;;;47.53;22.75;;;1.60;99.90;;;;;;5095336;28;20255;-86
2023/01/29 04:47:29;;;;;;;44.22;21.42;;;1.80;99.90;;;;;;5095844;28;20177;-78
2023/01/29 04:50:22;;;;;;;50.00;23.00;;;1.50;99.90;;;;;;5095339;28;20322;-82
2023/01/29 04:53:25;;;;;;;46.08;22.75;;;1.50;99.90;;;;;;5095847;28;20190;-79
2023/01/29 04:56:02;;;;;;;51.78;22.70;;;1.50;99.90;;;;;;5095460;28;20165;-80
2023/01/29 04:58:46;;;;;;;44.40;22.40;;;1.60;99.90;;;;;;5096324;28;20278;-82
2023/01/29 05:01:15;;;;;;;48.75;22.30;;;1.90;99.90;;;;;;5095683;28;20193;-79
2023/01/29 05:03:45;;;;;;;44.60;21.77;;;1.80;99.90;;;;;;5095215;28;20162;-78
2023/01/29 05:06:11;;;;;;;46.70;22.35;;;1.70;99.90;;;;;;5095085;28;20568;-85
2023/01/29 05:08:38;;;;;;;51.13;23.50;;;2.00;99.90;;;;;;5095043;28;20169;-80
2023/01/29 05:11:04;;;;;;;39.45;20.15;;;2.30;99.90;;;;;;5093994;28;20221;-84
2023/01/29 05:13:33;;;;;;;49.45;22.63;;;2.00;99.90;;;;;;5095155;28;20530;-86
2023/01/29 05:16:06;;;;;;;40.53;21.27;;;2.10;99.90;;;;;;5095360;28;20170;-78
2023/01/29 05:18:33;;;;;;;43.22;21.88;;;2.00;99.90;;;;;;5095507;28;20162;-84
2023/01/29 05:21:03;;;;;;;50.75;22.17;;;2.30;99.90;;;;;;5095127;28;20189;-79
2023/01/29 05:23:29;;;;;;;42.28;22.40;;;2.30;99.90;;;;;;5095399;28;20166;-83
2023/01/29 05:25:55;;;;;;;42.13;21.35;;;2.20;99.90;;;;;;5095471;28;20330;-80
2023/01/29 05:28:22;;;;;;;48.55;24.20;;;2.40;99.90;;;;;;5095365;28;20623;-84
2023/01/29 05:30:50;;;;;;;42.83;22.13;;;2.60;99.90;;;;;;5095328;28;20186;-85
2023/01/29 05:33:24;;;;;;;46.70;21.35;;;2.60;99.90;;;;;;5094903;28;20625;-85
2023/01/29 05:35:49;;;;;;;44.17;21.65;;;2.70;99.90;;;;;;5096202;28;20169;-79
2023/01/29 05:38:16;;;;;;;44.72;22.20;;;2.90;99.90;;;;;;5102543;28;20258;-78
2023/01/29 05:40:42;;;;;;;46.50;21.17;;;2.90;99.90;;;;;;5100077;28;20236;-78
2023/01/29 05:43:15;;;;;;;42.75;22.40;;;2.70;99.90;;;;;;5100603;28;20629;-78
2023/01/29 05:45:40;;;;;;;39.90;21.70;;;2.70;99.90;;;;;;5101661;28;20220;-80
2023/01/29 05:48:06;;;;;;;39.65;20.23;;;2.80;99.90;;;;;;5102021;28;20142;-79
2023/01/29 05:50:32;;;;;;;42.85;22.15;;;2.80;99.90;;;;;;5102396;28;20189;-78
2023/01/29 05:52:58;;;;;;;42.85;21.35;;;2.60;99.90;;;;;;5096747;28;20608;-82
2023/01/29 05:55:24;;;;;;;44.08;21.52;;;2.70;99.90;;;;;;5095385;28;20166;-82
2023/01/29 05:57:49;;;;;;;46.35;21.90;;;2.60;99.90;;;;;;5095517;28;20172;-78
2023/01/29 06:00:15;;;;;;;43.10;23.35;;;2.60;99.90;;;;;;5093281;28;20186;-76
2023/01/29 06:02:41;;;;;;;39.28;20.17;;;2.60;99.90;;;;;;5100359;28;20517;-78
2023/01/29 06:05:07;;;;;;;40.05;21.58;;;2.60;99.90;;;;;;5113960;28;20216;-77
2023/01/29 06:07:32;;;;;;;39.30;21.30;;;2.70;99.90;;;;;;5114902;28;20196;-79
2023/01/29 06:09:58;;;;;;;41.20;20.77;;;2.90;99.90;;;;;;5102499;28;20182;-77
2023/01/29 06:12:26;;;;;;;42.22;22.73;;;2.90;99.90;;;;;;5098290;28;20162;-84
2023/01/29 06:14:51;;;;;;;40.22;20.75;;;3.00;99.90;;;;;;5093870;28;20211;-78
2023/01/29 06:17:17;;;;;;;50.40;23.00;;;3.20;99.90;;;;;;5093990;28;20200;-77
2023/01/29 06:19:42;;;;;;;48.45;22.73;;;2.90;99.90;;;;;;5094155;28;20162;-85
2023/01/29 06:22:08;;;;;;;41.47;21.90;;;2.70;99.90;;;;;;5093527;28;20162;-77
2023/01/29 06:24:33;;;;;;;42.17;21.42;;;2.80;99.90;;;;;;5093408;28;20212;-79
2023/01/29 06:26:59;;;;;;;43.00;21.55;;;2.80;99.90;;;;;;5093885;28;20648;-79
2023/01/29 06:29:24;;;;;;;47.95;22.77;;;2.80;99.90;;;;;;5093783;28;20198;-77
2023/01/29 06:31:50;;;;;;;50.42;22.75;;;2.60;99.90;;;;;;5093145;28;20192;-80
2023/01/29 06:34:16;;;;;;;44.80;20.92;;;2.70;99.90;;;;;;5093332;28;20170;-78
2023/01/29 06:36:41;;;;;;;44.75;21.88;;;2.80;99.90;;;;;;5093197;28;20166;-83
2023/01/29 06:39:07;;;;;;;51.00;23.15;;;2.50;99.90;;;;;;5092970;28;20564;-77
2023/01/29 06:41:33;;;;;;;44.10;20.63;;;2.50;99.90;;;;;;5093069;28;20719;-77
2023/01/29 06:43:59;;;;;;;43.78;21.27;;;2.60;99.90;;;;;;5092743;28;20300;-77
2023/01/29 06:46:25;;;;;;;40.85;22.00;;;2.70;99.90;;;;;;5093602;28;20564;-77
2023/01/29 06:48:50;;;;;;;43.70;20.95;;;2.70;99.90;;;;;;5092954;28;20196;-81
2023/01/29 06:51:16;;;;;;;40.92;21.73;;;2.60;99.90;;;;;;5092960;28;20213;-80
2023/01/29 06:53:42;;;;;;;40.60;21.38;;;2.30;99.90;;;;;;5092280;28;20177;-77
2023/01/29 06:56:07;;;;;;;44.88;22.60;;;2.40;99.90;;;;;;5091900;28;20165;-77
2023/01/29 06:58:37;;;;;;;43.72;22.67;;;2.60;99.90;;;;;;5093271;28;20160;-77
2023/01/29 07:01:07;;;;;;;44.10;21.90;;;2.50;99.90;;;;;;5093383;28;20185;-82
2023/01/29 07:03:33;;;;;;;44.90;21.80;;;2.60;99.90;;;;;;5092131;28;20173;-77
2023/01/29 07:05:59;;;;;;;49.60;23.35;;;2.60;99.90;;;;;;5093292;28;20205;-77
2023/01/29 07:08:24;;;;;;;45.92;22.42;;;2.80;99.90;;;;;;5093216;28;20325;-77
2023/01/29 07:10:50;;;;;;;48.80;21.42;;;2.90;99.90;;;;;;5093496;28;20181;-78
2023/01/29 07:13:15;;;;;;;44.78;21.38;;;2.90;99.90;;;;;;5093776;28;20164;-77
2023/01/29 07:15:41;;;;;;;51.55;22.75;;;2.90;99.90;;;;;;5093489;28;20173;-78
2023/01/29 07:18:10;;;;;;;44.75;22.35;;;3.10;99.90;;;;;;5095790;28;20492;-78
2023/01/29 07:20:38;;;;;;;51.85;25.48;;;3.20;99.90;;;;;;5102858;28;20204;-78
2023/01/29 07:23:04;;;;;;;47.72;23.00;;;3.40;99.90;;;;;;5109732;28;20162;-77
2023/01/29 07:25:30;;;;;;;49.47;22.35;;;3.20;99.90;;;;;;5108315;28;20201;-79
2023/01/29 07:27:58;;;;;;;48.78;22.73;;;3.10;99.90;;;;;;5108873;28;20176;-77
2023/01/29 07:30:24;;;;;;;51.67;24.52;;;3.20;99.90;;;;;;5108994;28;20250;-77
2023/01/29 07:32:49;;;;;;;48.25;24.20;;;3.40;99.90;;;;;;5108114;28;20162;-77
2023/01/29 07:35:15;;;;;;;49.75;24.90;;;3.30;99.90;;;;;;5110834;28;20667;-77
2023/01/29 07:37:41;;;;;;;48.97;25.33;;;3.20;99.90;;;;;;5104305;28;20529;-77
2023/01/29 07:40:10;;;;;;;47.28;23.15;;;3.10;99.90;;;;;;5098173;28;20319;-83
2023/01/29 07:42:40;;;;;;;46.08;23.98;;;2.90;99.90;;;;;;5098882;28;20165;-87
2023/01/29 07:45:07;;;;;;;44.10;22.27;;;2.90;99.90;;;;;;5097261;28;20684;-77
2023/01/29 07:47:32;;;;;;;47.67;24.60;;;3.10;99.90;;;;;;5096046;28;20260;-77
2023/01/29 07:49:58;;;;;;;46.67;22.77;;;3.10;99.90;;;;;;5096763;28;20221;-81
2023/01/29 07:52:24;;;;;;;52.75;23.40;;;2.90;99.90;;;;;;5097117;28;20248;-82
2023/01/29 07:54:49;;;;;;;54.58;24.02;;;3.10;99.90;;;;;;5096834;28;20169;-87
2023/01/29 07:57:15;;;;;;;48.90;24.25;;;3.30;99.90;;;;;;5096988;28;20162;-77
2023/01/29 07:59:40;;;;;;;58.95;24.88;;;3.40;99.90;;;;;;5096670;28;20634;-79
2023/01/29 08:02:08;;;;;;;49.38;23.20;;;3.30;99.90;;;;;;5096826;28;20229;-77
2023/01/29 08:04:33;;;;;;;47.63;23.17;;;3.30;99.90;;;;;;5095213;28;20225;-82
2023/01/29 08:06:59;;;;;;;52.85;24.60;;;3.30;99.90;;;;;;5095617;28;20291;-87
2023/01/29 08:09:25;;;;;;;43.88;24.33;;;3.40;99.90;;;;;;5096681;28;20161;-92
2023/01/29 08:11:50;;;;;;;55.42;24.85;;;3.20;99.90;;;;;;5099037;28;20860;-80
2023/01/29 08:14:16;;;;;;;45.35;22.65;;;3.30;99.90;;;;;;5097337;28;20181;-79
2023/01/29 08:16:41;;;;;;;54.42;26.48;;;3.30;99.90;;;;;;5093645;28;20578;-80
2023/01/29 08:19:07;;;;;;;48.90;24.02;;;3.40;99.90;;;;;;5097056;28;20252;-86
2023/01/29 08:21:33;;;;;;;45.65;23.40;;;3.40;99.90;;;;;;5095392;28;20197;-85
2023/01/29 08:23:58;;;;;;;44.75;24.35;;;3.20;99.90;;;;;;5096916;28;20653;-79
2023/01/29 08:26:26;;;;;;;55.22;25.45;;;3.20;99.90;;;;;;5097396;28;20173;-78
2023/01/29 08:28:52;;;;;;;53.38;24.02;;;3.40;99.90;;;;;;5095577;28;20165;-78
2023/01/29 08:31:19;;;;;;;48.28;23.17;;;3.60;99.90;;;;;;5096933;28;20625;-78
2023/01/29 08:33:45;;;;;;;49.90;23.55;;;3.50;99.90;;;;;;5094111;28;20162;-90
2023/01/29 08:36:11;;;;;;;49.45;24.05;;;3.30;99.90;;;;;;5095451;28;20176;-78
2023/01/29 08:38:36;;;;;;;50.38;23.05;;;3.70;99.90;;;;;;5096106;28;20597;-79
2023/01/29 08:41:02;;;;;;;38.75;22.42;;;3.90;99.90;;;;;;5097224;28;20562;-81
2023/01/29 08:43:28;;;;;;;45.70;23.15;;;3.70;99.90;;;;;;5095609;28;20192;-79
2023/01/29 08:45:53;;;;;;;52.17;23.67;;;3.70;99.90;;;;;;5094750;28;20209;-78
2023/01/29 08:48:19;;;;;;;44.15;23.38;;;4.00;99.90;;;;;;5094734;28;20176;-78
2023/01/29 08:50:44;;;;;;;47.60;24.05;;;4.00;99.90;;;;;;5094056;28;20512;-78
2023/01/29 08:53:10;;;;;;;45.55;22.27;;;4.00;99.90;;;;;;5094291;28;20264;-89
2023/01/29 08:55:37;;;;;;;48.00;22.13;;;3.90;99.90;;;;;;5094694;28;20170;-85
2023/01/29 08:58:04;;;;;;;48.63;25.30;;;3.90;99.90;;;;;;5094679;28;20201;-80
2023/01/29 09:00:31;;;;;;;53.65;24.45;;;4.10;99.90;;;;;;5094702;28;20684;-82
2023/01/29 09:02:58;;;;;;;47.50;23.85;;;4.10;99.90;;;;;;5095094;28;20174;-78
2023/01/29 09:05:24;;;;;;;48.15;23.90;;;4.20;99.90;;;;;;5095008;28;20209;-82
2023/01/29 09:07:50;;;;;;;42.58;21.23;;;4.20;99.90;;;;;;5109828;28;20178;-80
2023/01/29 09:10:16;;;;;;;50.38;24.10;;;4.20;99.90;;;;;;5112826;28;20186;-82
2023/01/29 09:12:42;;;;;;;44.80;22.40;;;3.90;99.90;;;;;;5104473;28;20289;-82
2023/01/29 09:15:08;;;;;;;42.63;22.77;;;4.00;99.90;;;;;;5099021;28;20181;-78
2023/01/29 09:17:33;;;;;;;46.50;23.20;;;4.10;99.90;;;;;;5103878;28;20309;-79
2023/01/29 09:19:59;;;;;;;41.58;22.80;;;4.00;99.90;;;;;;5091831;28;20282;-79
2023/01/29 09:22:25;;;;;;;49.88;22.58;;;4.20;99.90;;;;;;5094039;28;20192;-80
2023/01/29 09:24:50;;;;;;;55.22;24.33;;;4.20;99.90;;;;;;5092811;28;20647;-78
2023/01/29 09:27:16;;;;;;;54.97;24.85;;;4.40;99.90;;;;;;5093497;28;20231;-78
2023/01/29 09:29:41;;;;;;;45.13;23.35;;;4.60;99.90;;;;;;5093869;28;20626;-77
2023/01/29 09:32:07;;;;;;;45.42;22.95;;;4.30;99.90;;;;;;5094016;28;20181;-81
2023/01/29 09:34:33;;;;;;;44.17;23.08;;;4.40;99.90;;;;;;5095430;28;20181;-79
2023/01/29 09:36:59;;;;;;;49.53;25.73;;;4.30;99.90;;;;;;5093769;28;20177;-80
2023/01/29 09:39:25;;;;;;;46.90;24.30;;;4.50;99.90;;;;;;5093594;28;20169;-90
2023/01/29 09:42:12;;;;;;;52.90;25.95;;;4.70;99.90;;;;;;5096754;28;20193;-78
2023/01/29 09:44:53;;;;;;;52.90;24.42;;;4.70;99.90;;;;;;5092558;28;20250;-82
2023/01/29 09:47:21;;;;;;;49.00;24.83;;;4.60;99.90;;;;;;5094076;28;20572;-79
2023/01/29 09:49:58;;;;;;;42.03;22.67;;;4.50;99.90;;;;;;5093263;28;20197;-78
2023/01/29 09:52:26;;;;;;;47.05;22.70;;;4.40;99.90;;;;;;5091812;28;20172;-81
2023/01/29 09:55:23;;;;;;;50.47;23.38;;;4.30;99.90;;;;;;5090019;28;20177;-79
2023/01/29 09:57:53;;;;;;;41.38;22.05;;;4.50;99.90;;;;;;5095292;28;20207;-79
2023/01/29 10:00:34;;;;;;;42.97;22.15;;;4.80;99.90;;;;;;5094455;28;20178;-78
2023/01/29 10:03:19;;;;;;;40.20;19.63;;;4.90;99.90;;;;;;5092409;28;20196;-79
2023/01/29 10:05:58;;;;;;;42.30;22.33;;;4.80;99.90;;;;;;5090233;28;20212;-77
2023/01/29 10:08:59;;;;;;;42.45;20.77;;;5.00;99.90;;;;;;5093110;28;20166;-78
2023/01/29 10:12:00;;;;;;;35.10;18.80;;;4.70;99.90;;;;;;5092375;28;20182;-78
2023/01/29 10:14:29;;;;;;;55.38;24.17;;;4.50;99.90;;;;;;5091441;28;20176;-78
2023/01/29 10:17:15;;;;;;;45.58;21.90;;;4.30;99.90;;;;;;5092567;28;20207;-79
2023/01/29 10:19:56;;;;;;;43.92;20.75;;;4.40;99.90;;;;;;5091485;28;20173;-78
2023/01/29 10:23:03;;;;;;;39.22;20.75;;;4.50;99.90;;;;;;5093532;28;20202;-85
2023/01/29 10:25:38;;;;;;;44.08;20.75;;;4.30;99.90;;;;;;5092844;28;20232;-80
2023/01/29 10:28:26;;;;;;;39.85;20.63;;;4.30;99.90;;;;;;5093859;28;20585;-79
2023/01/29 10:31:03;;;;;;;46.00;20.85;;;4.60;99.90;;;;;;5093290;28;20193;-80
2023/01/29 10:33:37;;;;;;;43.85;19.10;;;4.70;99.90;;;;;;5093937;28;20256;-78
2023/01/29 10:36:09;;;;;;;49.20;21.25;;;5.00;99.90;;;;;;5093903;28;20506;-77
2023/01/29 10:38:45;;;;;;;52.03;20.80;;;5.00;99.90;;;;;;5093862;28;20240;-78
2023/01/29 10:41:33;;;;;;;41.25;20.40;;;5.20;99.90;;;;;;5093458;28;20721;-78
2023/01/29 10:44:25;;;;;;;40.05;19.77;;;4.90;99.90;;;;;;5093272;28;20186;-78
2023/01/29 10:47:33;;;;;;;38.25;20.40;;;5.10;99.90;;;;;;5094229;28;20169;-78
2023/01/29 10:50:07;;;;;;;41.85;20.27;;;5.30;99.90;;;;;;5091692;28;20193;-86
2023/01/29 10:53:04;;;;;;;35.80;20.13;;;5.30;99.90;;;;;;5094712;28;20176;-82
2023/01/29 10:55:42;;;;;;;41.25;19.40;;;5.40;99.90;;;;;;5096814;28;20170;-84
2023/01/29 10:58:33;;;;;;;33.97;18.25;;;5.60;99.90;;;;;;5093110;28;20173;-85
2023/01/29 11:00:59;;;;;;;35.50;19.42;;;5.60;99.90;;;;;;5087706;28;20206;-78
2023/01/29 11:03:31;;;;;;;44.25;19.83;;;5.30;99.90;;;;;;5092903;28;20223;-81
2023/01/29 11:06:18;;;;;;;33.63;17.90;;;5.30;99.90;;;;;;5092965;28;20202;-91
2023/01/29 11:09:08;;;;;;;32.13;18.52;;;5.50;99.90;;;;;;5091014;28;20169;-79
2023/01/29 11:11:52;;;;;;;37.72;18.13;;;5.50;99.90;;;;;;5093469;28;20243;-82
2023/01/29 11:14:24;;;;;;;31.73;17.48;;;5.60;99.90;;;;;;5093130;28;20158;-80
2023/01/29 11:16:50;;;;;;;30.63;16.17;;;5.50;99.90;;;;;;5095820;28;20166;-77
2023/01/29 11:19:16;;;;;;;35.63;17.50;;;5.40;99.90;;;;;;5094688;28;20162;-79
2023/01/29 11:21:56;;;;;;;28.45;16.55;;;5.40;99.90;;;;;;5093042;28;20200;-79
2023/01/29 11:24:21;;;;;;;31.58;17.15;;;5.50;99.90;;;;;;5094217;28;20197;-80
2023/01/29 11:26:49;;;;;;;32.28;17.48;;;5.30;99.90;;;;;;5093414;28;20636;-79
2023/01/29 11:29:36;;;;;;;32.40;16.63;;;5.20;99.90;;;;;;5093688;28;20170;-79
2023/01/29 11:32:12;;;;;;;33.75;15.77;;;5.40;99.90;;;;;;5094023;28;20173;-78
2023/01/29 11:34:58;;;;;;;32.25;16.23;;;5.70;99.90;;;;;;5093560;28;20634;-78
2023/01/29 11:37:34;;;;;;;25.42;15.43;;;5.90;99.90;;;;;;5094307;28;20169;-81
2023/01/29 11:40:00;;;;;;;27.73;16.10;;;5.90;99.90;;;;;;5094180;28;20185;-79
2023/01/29 11:42:30;;;;;;;24.48;15.18;;;6.00;99.90;;;;;;5094707;28;20215;-83
2023/01/29 11:44:56;;;;;;;29.38;16.05;;;5.80;99.90;;;;;;5092321;28;20210;-84
2023/01/29 11:47:28;;;;;;;26.75;15.35;;;5.70;99.90;;;;;;5092817;28;20234;-80
2023/01/29 11:49:56;;;;;;;32.20;16.20;;;5.80;99.90;;;;;;5093912;28;20556;-82
2023/01/29 11:52:25;;;;;;;26.35;15.68;;;5.80;99.90;;;;;;5094709;28;20170;-87
2023/01/29 11:55:05;;;;;;;19.85;12.98;;;5.80;99.90;;;;;;5093501;28;20663;-79
2023/01/29 11:57:36;;;;;;;26.45;14.00;;;5.70;99.90;;;;;;5092757;28;20564;-79
2023/01/29 12:00:05;;;;;;;24.80;13.10;;;6.10;99.90;;;;;;5093049;28;20189;-83
2023/01/29 12:02:40;;;;;;;29.17;12.27;;;6.00;99.90;;;;;;5092698;28;20735;-79
2023/01/29 12:05:19;;;;;;;25.05;13.15;;;6.00;99.90;;;;;;5091518;28;20300;-80
2023/01/29 12:07:48;;;;;;;29.17;15.27;;;6.10;99.90;;;;;;5092798;28;20218;-78
2023/01/29 12:10:32;;;;;;;24.35;13.48;;;5.90;99.90;;;;;;5101182;28;20206;-78
2023/01/29 12:13:18;;;;;;;24.27;13.50;;;6.10;99.90;;;;;;5112988;28;20162;-81
2023/01/29 12:15:45;;;;;;;23.45;13.02;;;6.00;99.90;;;;;;5110259;28;20158;-78
2023/01/29 12:18:25;;;;;;;32.45;13.35;;;6.00;99.90;;;;;;5100068;28;20170;-77
2023/01/29 12:20:54;;;;;;;27.65;12.90;;;6.00;99.90;;;;;;5099050;28;20177;-78
2023/01/29 12:23:25;;;;;;;20.25;12.35;;;6.00;99.90;;;;;;5098218;28;20197;-81
2023/01/29 12:26:07;;;;;;;22.60;12.75;;;6.20;99.90;;;;;;5097330;28;20280;-80
2023/01/29 12:28:41;;;;;;;27.05;12.85;;;6.20;99.90;;;;;;5100756;28;20162;-78
2023/01/29 12:31:28;;;;;;;25.13;14.05;;;6.30;99.90;;;;;;5100150;28;20706;-81
2023/01/29 12:34:03;;;;;;;22.45;13.95;;;6.20;99.90;;;;;;5096015;28;20173;-83
2023/01/29 12:36:54;;;;;;;18.38;11.85;;;5.90;99.90;;;;;;5096987;28;20196;-80
2023/01/29 12:39:20;;;;;;;19.33;12.05;;;5.90;99.90;;;;;;5098196;28;20166;-85
2023/01/29 12:42:02;;;;;;;18.73;11.57;;;5.90;99.90;;;;;;5096649;28;20181;-77
2023/01/29 12:44:33;;;;;;;17.15;11.93;;;6.10;99.90;;;;;;5096801;28;20198;-89
2023/01/29 12:47:02;;;;;;;21.13;11.23;;;6.00;99.90;;;;;;5097080;28;20172;-83
2023/01/29 12:49:32;;;;;;;26.90;11.95;;;6.00;99.90;;;;;;5097795;28;20207;-79
2023/01/29 12:52:12;;;;;;;24.58;13.50;;;6.10;99.90;;;;;;5101399;28;20256;-79
2023/01/29 12:55:12;;;;;;;18.80;12.15;;;6.10;99.90;;;;;;5104574;28;20176;-80
2023/01/29 12:57:52;;;;;;;18.88;11.77;;;6.10;99.90;;;;;;5103868;28;20168;-81
2023/01/29 13:00:25;;;;;;;19.17;11.02;;;6.20;99.90;;;;;;5099028;28;20269;-79
2023/01/29 13:03:07;;;;;;;17.25;10.02;;;6.20;99.90;;;;;;5101221;28;20219;-79
2023/01/29 13:05:38;;;;;;;16.45;11.25;;;6.00;99.90;;;;;;5100321;28;20213;-80
2023/01/29 13:08:13;;;;;;;16.35;11.10;;;6.00;99.90;;;;;;5100210;28;20146;-78
2023/01/29 13:10:47;;;;;;;28.00;11.85;;;6.00;99.90;;;;;;5099882;28;20272;-78
2023/01/29 13:13:32;;;;;;;22.40;12.35;;;6.00;99.90;;;;;;5099292;28;20173;-78
2023/01/29 13:15:59;;;;;;;20.58;11.98;;;6.10;99.90;;;;;;5098479;28;20184;-79
2023/01/29 13:19:01;;;;;;;24.92;13.68;;;6.10;99.90;;;;;;5100734;28;20170;-79
2023/01/29 13:21:35;;;;;;;36.22;12.50;;;6.10;99.90;;;;;;5094245;28;20197;-78
2023/01/29 13:24:08;;;;;;;21.48;12.05;;;6.00;99.90;;;;;;5098138;28;20231;-80
2023/01/29 13:26:34;;;;;;;19.10;12.68;;;6.00;99.90;;;;;;5098274;28;20192;-79